RYR07NM ELLX-EGSS
Flight info
| Callsign | RYR07NM |
|---|---|
| Flight time | N/A |
| Altitude | 34000 |
| Route | LNO N852 TERLA L608 BUB M624 NIK DCT KOZUF DCT IMPOH DCT SASKI L608 SUMUM Y6 TOSVA |
| Aircraft | B738/M-SDE2E3FGHIRWXY/LB1 |
Departure
| Time | 2026-04-29 18:55 |
|---|---|
| Airport | Luxembourg-Findel International Airport (ELLX) |
Arrival
| Time | N/A |
|---|---|
| Airport | London Stansted Airport (EGSS) |
| Time | Latitude | Longitude | Altitude | Speed | Heading |
|---|---|---|---|---|---|
| 2026-04-29 18:32 | 49.63339 | 6.21697 | 1221 ft | 0 kts | 328° |
| 2026-04-29 18:43 | 49.63332 | 6.21705 | 1221 ft | 2 kts | 327° |
| 2026-04-29 18:43 | 49.63318 | 6.21719 | 1220 ft | 2 kts | 324° |
| 2026-04-29 18:44 | 49.63305 | 6.21735 | 1219 ft | 2 kts | 292° |
| 2026-04-29 18:44 | 49.63306 | 6.21753 | 1219 ft | 1 kts | 238° |
| 2026-04-29 18:44 | 49.63306 | 6.21754 | 1219 ft | 0 kts | 238° |
| 2026-04-29 18:47 | 49.63295 | 6.21723 | 1218 ft | 7 kts | 243° |
| 2026-04-29 18:47 | 49.63282 | 6.21638 | 1218 ft | 9 kts | 260° |
| 2026-04-29 18:47 | 49.63261 | 6.21552 | 1217 ft | 8 kts | 248° |
| 2026-04-29 18:48 | 49.63232 | 6.21534 | 1216 ft | 3 kts | 159° |
| 2026-04-29 18:48 | 49.63187 | 6.21568 | 1214 ft | 10 kts | 152° |
| 2026-04-29 18:48 | 49.63116 | 6.21626 | 1208 ft | 13 kts | 162° |
| 2026-04-29 18:48 | 49.63047 | 6.21554 | 1204 ft | 13 kts | 244° |
| 2026-04-29 18:49 | 49.63008 | 6.21426 | 1204 ft | 13 kts | 244° |
| 2026-04-29 18:49 | 49.62971 | 6.21303 | 1205 ft | 13 kts | 245° |
| 2026-04-29 18:49 | 49.62936 | 6.21181 | 1205 ft | 12 kts | 244° |
| 2026-04-29 18:49 | 49.62898 | 6.21064 | 1207 ft | 12 kts | 243° |
| 2026-04-29 18:50 | 49.62862 | 6.20950 | 1206 ft | 12 kts | 245° |
| 2026-04-29 18:50 | 49.62827 | 6.20836 | 1205 ft | 12 kts | 244° |
| 2026-04-29 18:50 | 49.62785 | 6.20731 | 1204 ft | 12 kts | 229° |
| 2026-04-29 18:50 | 49.62762 | 6.20695 | 1203 ft | 1 kts | 225° |
| 2026-04-29 18:51 | 49.62747 | 6.20674 | 1202 ft | 5 kts | 218° |
| 2026-04-29 18:51 | 49.62708 | 6.20631 | 1199 ft | 9 kts | 215° |
| 2026-04-29 18:51 | 49.62650 | 6.20553 | 1195 ft | 15 kts | 224° |
| 2026-04-29 18:51 | 49.62563 | 6.20398 | 1190 ft | 22 kts | 229° |
| 2026-04-29 18:52 | 49.62470 | 6.20205 | 1187 ft | 22 kts | 239° |
| 2026-04-29 18:52 | 49.62395 | 6.20001 | 1185 ft | 22 kts | 239° |
| 2026-04-29 18:52 | 49.62322 | 6.19807 | 1184 ft | 21 kts | 240° |
| 2026-04-29 18:52 | 49.62251 | 6.19612 | 1178 ft | 21 kts | 241° |
| 2026-04-29 18:53 | 49.62178 | 6.19418 | 1173 ft | 22 kts | 239° |
| 2026-04-29 18:53 | 49.62099 | 6.19209 | 1168 ft | 22 kts | 240° |
| 2026-04-29 18:53 | 49.62024 | 6.19006 | 1167 ft | 22 kts | 240° |
| 2026-04-29 18:53 | 49.61944 | 6.18814 | 1167 ft | 21 kts | 227° |
| 2026-04-29 18:54 | 49.61823 | 6.18723 | 1167 ft | 20 kts | 161° |
| 2026-04-29 18:54 | 49.61777 | 6.18820 | 1170 ft | 8 kts | 63° |
| 2026-04-29 18:54 | 49.61784 | 6.18840 | 1168 ft | 0 kts | 60° |
| 2026-04-29 18:54 | 49.61849 | 6.19017 | 1169 ft | 60 kts | 60° |
| 2026-04-29 18:55 | 49.62206 | 6.19978 | 1186 ft | 142 kts | 60° |
| 2026-04-29 18:55 | 49.62789 | 6.21541 | 1514 ft | 189 kts | 62° |
| 2026-04-29 18:55 | 49.63506 | 6.23338 | 2437 ft | 202 kts | 62° |
| 2026-04-29 18:55 | 49.64193 | 6.25302 | 3309 ft | 217 kts | 65° |
| 2026-04-29 18:56 | 49.64859 | 6.27260 | 3835 ft | 194 kts | 65° |
| 2026-04-29 18:56 | 49.65494 | 6.29003 | 3932 ft | 176 kts | 63° |
| 2026-04-29 18:56 | 49.66103 | 6.30577 | 3962 ft | 168 kts | 62° |
| 2026-04-29 18:56 | 49.66677 | 6.32087 | 3967 ft | 159 kts | 63° |
| 2026-04-29 18:57 | 49.67233 | 6.33572 | 4011 ft | 163 kts | 64° |
| 2026-04-29 18:57 | 49.67805 | 6.35119 | 4019 ft | 168 kts | 64° |
| 2026-04-29 18:57 | 49.68511 | 6.36536 | 3994 ft | 173 kts | 42° |
| 2026-04-29 18:57 | 49.69598 | 6.37373 | 3988 ft | 180 kts | 20° |
| 2026-04-29 18:58 | 49.70871 | 6.37357 | 4010 ft | 191 kts | 353° |
| 2026-04-29 18:58 | 49.72073 | 6.36319 | 4005 ft | 208 kts | 322° |
| 2026-04-29 18:58 | 49.73092 | 6.34691 | 4014 ft | 212 kts | 321° |
| 2026-04-29 18:58 | 49.74147 | 6.33107 | 4149 ft | 209 kts | 322° |
| 2026-04-29 18:59 | 49.75243 | 6.31495 | 4465 ft | 230 kts | 322° |
| 2026-04-29 18:59 | 49.76476 | 6.29688 | 4722 ft | 258 kts | 321° |
| 2026-04-29 18:59 | 49.77840 | 6.27680 | 5058 ft | 281 kts | 320° |
| 2026-04-29 18:59 | 49.79248 | 6.25587 | 5804 ft | 286 kts | 319° |
| 2026-04-29 19:00 | 49.80681 | 6.23444 | 6696 ft | 287 kts | 319° |
| 2026-04-29 19:00 | 49.82121 | 6.21286 | 7463 ft | 290 kts | 319° |
| 2026-04-29 19:00 | 49.83575 | 6.19105 | 8271 ft | 292 kts | 319° |
| 2026-04-29 19:00 | 49.85039 | 6.16907 | 9076 ft | 294 kts | 319° |
| 2026-04-29 19:01 | 49.86513 | 6.14692 | 9905 ft | 296 kts | 319° |
| 2026-04-29 19:01 | 49.88012 | 6.12441 | 10599 ft | 302 kts | 319° |
| 2026-04-29 19:01 | 49.89569 | 6.10103 | 10799 ft | 325 kts | 319° |
| 2026-04-29 19:01 | 49.91224 | 6.07620 | 11023 ft | 345 kts | 319° |
| 2026-04-29 19:02 | 49.92972 | 6.04987 | 11577 ft | 353 kts | 319° |
| 2026-04-29 19:02 | 49.94160 | 6.03194 | 12118 ft | 353 kts | 319° |
| 2026-04-29 19:02 | 49.96498 | 5.99657 | 13178 ft | 356 kts | 319° |
| 2026-04-29 19:02 | 49.98275 | 5.96966 | 13918 ft | 359 kts | 319° |
| 2026-04-29 19:03 | 50.00070 | 5.94247 | 14192 ft | 360 kts | 319° |
| 2026-04-29 19:03 | 50.01863 | 5.91527 | 14233 ft | 361 kts | 319° |
| 2026-04-29 19:03 | 50.03665 | 5.88791 | 14239 ft | 363 kts | 319° |
| 2026-04-29 19:03 | 50.05466 | 5.86056 | 14237 ft | 362 kts | 319° |
| 2026-04-29 19:04 | 50.07273 | 5.83307 | 14343 ft | 366 kts | 319° |
| 2026-04-29 19:04 | 50.09102 | 5.80524 | 15001 ft | 369 kts | 319° |
| 2026-04-29 19:04 | 50.10934 | 5.77732 | 15836 ft | 368 kts | 319° |
| 2026-04-29 19:04 | 50.12739 | 5.74976 | 16606 ft | 370 kts | 319° |
| 2026-04-29 19:05 | 50.14589 | 5.72153 | 17304 ft | 374 kts | 319° |
| 2026-04-29 19:05 | 50.16457 | 5.69297 | 17979 ft | 378 kts | 319° |
| 2026-04-29 19:05 | 50.18344 | 5.66409 | 18654 ft | 382 kts | 319° |
| 2026-04-29 19:05 | 50.20249 | 5.63491 | 19193 ft | 386 kts | 319° |
| 2026-04-29 19:06 | 50.22180 | 5.60531 | 19748 ft | 392 kts | 319° |